createdAt,value
2022-09-10T00:00:34.346Z,99.90
2022-09-10T00:03:03.828Z,99.90
2022-09-10T00:05:30.417Z,99.90
2022-09-10T00:07:57.079Z,99.90
2022-09-10T00:10:23.989Z,99.90
2022-09-10T00:12:51.156Z,99.90
2022-09-10T00:15:20.850Z,99.90
2022-09-10T00:17:47.655Z,99.90
2022-09-10T00:20:14.275Z,99.90
2022-09-10T00:22:40.888Z,99.90
2022-09-10T00:25:08.471Z,99.90
2022-09-10T00:27:35.817Z,99.90
2022-09-10T00:30:03.624Z,99.90
2022-09-10T00:32:30.324Z,99.90
2022-09-10T00:34:56.909Z,99.90
2022-09-10T00:37:23.547Z,99.90
2022-09-10T00:39:50.364Z,99.90
2022-09-10T00:42:18.952Z,99.90
2022-09-10T00:44:45.491Z,99.90
2022-09-10T00:47:42.155Z,99.90
2022-09-10T00:50:22.476Z,99.90
2022-09-10T00:52:51.273Z,99.90
2022-09-10T00:55:18.094Z,99.90
2022-09-10T00:57:45.912Z,99.90
2022-09-10T01:00:13.581Z,99.90
2022-09-10T01:02:40.532Z,99.90
2022-09-10T01:05:09.000Z,99.90
2022-09-10T01:07:36.144Z,99.90
2022-09-10T01:10:14.711Z,99.90
2022-09-10T01:12:41.250Z,99.90
2022-09-10T01:15:23.109Z,99.90
2022-09-10T01:17:54.821Z,99.90
2022-09-10T01:20:24.872Z,99.90
2022-09-10T01:22:51.429Z,99.90
2022-09-10T01:25:33.345Z,99.90
2022-09-10T01:28:03.457Z,99.90
2022-09-10T01:30:42.911Z,99.90
2022-09-10T01:33:16.575Z,99.90
2022-09-10T01:35:47.691Z,99.90
2022-09-10T01:38:19.953Z,99.90
2022-09-10T01:40:46.817Z,99.90
2022-09-10T01:43:13.442Z,99.90
2022-09-10T01:45:45.926Z,99.90
2022-09-10T01:48:26.464Z,99.90
2022-09-10T01:51:00.311Z,99.90
2022-09-10T01:53:28.798Z,99.90
2022-09-10T01:56:03.026Z,99.90
2022-09-10T01:58:30.805Z,99.90
2022-09-10T02:01:03.161Z,99.90
2022-09-10T02:03:30.724Z,99.90
2022-09-10T02:05:58.198Z,99.90
2022-09-10T02:08:27.826Z,99.90
2022-09-10T02:10:56.044Z,99.90
2022-09-10T02:13:23.384Z,99.90
2022-09-10T02:15:51.878Z,99.90
2022-09-10T02:18:19.655Z,99.90
2022-09-10T02:20:47.252Z,99.90
2022-09-10T02:23:14.637Z,99.90
2022-09-10T02:25:41.233Z,99.90
2022-09-10T02:28:08.901Z,99.90
2022-09-10T02:30:35.469Z,99.90
2022-09-10T02:33:02.134Z,99.90
2022-09-10T02:35:28.845Z,99.90
2022-09-10T02:37:56.786Z,99.90
2022-09-10T02:40:23.352Z,99.90
2022-09-10T02:42:50.031Z,99.90
2022-09-10T02:45:16.681Z,99.90
2022-09-10T02:47:43.245Z,99.90
2022-09-10T02:50:09.994Z,99.90
2022-09-10T02:52:37.048Z,99.90
2022-09-10T02:55:03.732Z,99.90
2022-09-10T02:57:31.007Z,99.90
2022-09-10T02:59:57.668Z,99.90
2022-09-10T03:02:24.343Z,99.90
2022-09-10T03:04:51.046Z,99.90
2022-09-10T03:07:20.072Z,99.90
2022-09-10T03:09:47.023Z,99.90
2022-09-10T03:12:15.794Z,99.90
2022-09-10T03:14:47.305Z,99.90
2022-09-10T03:17:13.867Z,99.90
2022-09-10T03:19:40.458Z,99.90
2022-09-10T03:22:07.124Z,99.90
2022-09-10T03:24:33.769Z,99.90
2022-09-10T03:27:01.477Z,99.90
2022-09-10T03:29:30.051Z,99.90
2022-09-10T03:31:56.680Z,99.90
2022-09-10T03:34:23.293Z,99.90
2022-09-10T03:36:51.370Z,99.90
2022-09-10T03:39:18.847Z,99.90
2022-09-10T03:41:45.830Z,99.90
2022-09-10T03:44:12.827Z,99.90
2022-09-10T03:46:39.411Z,99.90
2022-09-10T03:49:07.043Z,99.90
2022-09-10T03:51:34.120Z,99.90
2022-09-10T03:54:00.731Z,99.90
2022-09-10T03:56:27.817Z,99.90
2022-09-10T03:58:54.421Z,99.90
2022-09-10T04:01:21.056Z,99.90
2022-09-10T04:03:47.780Z,99.90
2022-09-10T04:06:16.168Z,99.90
2022-09-10T04:08:46.260Z,99.90
2022-09-10T04:11:13.748Z,99.90
2022-09-10T04:13:40.378Z,99.90
2022-09-10T04:16:07.089Z,99.90
2022-09-10T04:18:34.552Z,99.90
2022-09-10T04:21:01.240Z,99.90
2022-09-10T04:23:29.380Z,99.90
2022-09-10T04:25:57.063Z,99.90
2022-09-10T04:28:24.126Z,99.90
2022-09-10T04:30:51.229Z,99.90
2022-09-10T04:33:18.293Z,99.90
2022-09-10T04:35:44.945Z,99.90
2022-09-10T04:38:11.675Z,99.90
2022-09-10T04:40:38.319Z,99.90
2022-09-10T04:43:05.007Z,99.90
2022-09-10T04:45:33.014Z,99.90
2022-09-10T04:48:01.689Z,99.90
2022-09-10T04:50:31.469Z,99.90
2022-09-10T04:52:59.038Z,99.90
2022-09-10T04:55:26.048Z,99.90
2022-09-10T04:57:52.984Z,99.90
2022-09-10T05:00:19.737Z,99.90
2022-09-10T05:02:46.670Z,99.90
2022-09-10T05:05:13.838Z,99.90
2022-09-10T05:07:40.459Z,99.90
2022-09-10T05:10:09.978Z,99.90
2022-09-10T05:12:38.451Z,99.90
2022-09-10T05:15:06.454Z,99.90
2022-09-10T05:17:33.548Z,99.90
2022-09-10T05:20:00.317Z,99.90
2022-09-10T05:22:33.716Z,99.90
2022-09-10T05:25:03.105Z,99.90
2022-09-10T05:27:29.797Z,99.90
2022-09-10T05:29:57.457Z,99.90
2022-09-10T05:32:24.514Z,99.90
2022-09-10T05:34:51.081Z,99.90
2022-09-10T05:37:18.641Z,99.90
2022-09-10T05:39:47.260Z,99.90
2022-09-10T05:42:14.483Z,99.90
2022-09-10T05:44:41.372Z,99.90
2022-09-10T05:47:08.191Z,99.90
2022-09-10T05:49:34.904Z,99.90
2022-09-10T05:52:01.561Z,99.90
2022-09-10T05:54:31.016Z,99.90
2022-09-10T05:56:58.631Z,99.90
2022-09-10T05:59:25.262Z,99.90
2022-09-10T06:01:54.874Z,99.90
2022-09-10T06:04:21.508Z,99.90
2022-09-10T06:06:48.086Z,99.90
2022-09-10T06:09:14.735Z,99.90
2022-09-10T06:11:41.868Z,99.90
2022-09-10T06:14:09.002Z,99.90
2022-09-10T06:16:35.616Z,99.90
2022-09-10T06:19:02.926Z,99.90
2022-09-10T06:21:29.779Z,99.90
2022-09-10T06:23:56.464Z,99.90
2022-09-10T06:26:23.399Z,99.90
2022-09-10T06:28:50.054Z,99.90
2022-09-10T06:31:20.021Z,99.90
2022-09-10T06:33:48.847Z,99.90
2022-09-10T06:36:15.853Z,99.90
2022-09-10T06:38:44.991Z,99.90
2022-09-10T06:41:12.406Z,99.90
2022-09-10T06:43:41.441Z,99.90
2022-09-10T06:46:41.115Z,99.90
2022-09-10T06:49:03.689Z,99.90
2022-09-10T06:51:30.338Z,99.90
2022-09-10T06:53:57.684Z,99.90
2022-09-10T06:56:24.593Z,99.90
2022-09-10T06:58:51.683Z,99.90
2022-09-10T07:01:19.441Z,99.90
2022-09-10T07:03:46.479Z,99.90
2022-09-10T07:06:14.113Z,99.90
2022-09-10T07:08:40.802Z,99.90
2022-09-10T07:11:11.252Z,99.90
2022-09-10T07:13:38.498Z,99.90
2022-09-10T07:16:05.234Z,99.90
2022-09-10T07:18:33.418Z,99.90
2022-09-10T07:21:10.374Z,99.90
2022-09-10T07:23:39.016Z,99.90
2022-09-10T07:26:07.605Z,99.90
2022-09-10T07:28:36.304Z,99.90
2022-09-10T07:31:20.043Z,99.90
2022-09-10T07:33:47.301Z,99.90
2022-09-10T07:36:14.341Z,99.90
2022-09-10T07:38:41.640Z,99.90
2022-09-10T07:41:11.220Z,99.90
2022-09-10T07:43:41.735Z,99.90
2022-09-10T07:46:12.336Z,99.90
2022-09-10T07:48:40.256Z,99.90
2022-09-10T07:51:08.083Z,99.90
2022-09-10T07:53:34.947Z,99.90
2022-09-10T07:56:02.758Z,99.90
2022-09-10T07:58:31.796Z,99.90
2022-09-10T08:00:59.672Z,99.90
2022-09-10T08:03:26.806Z,99.90
2022-09-10T08:05:54.016Z,99.90
2022-09-10T08:08:20.936Z,99.90
2022-09-10T08:10:48.680Z,99.90
2022-09-10T08:13:15.606Z,99.90
2022-09-10T08:15:43.902Z,99.90
2022-09-10T08:18:16.274Z,99.90
2022-09-10T08:20:42.893Z,99.90
2022-09-10T08:23:10.681Z,99.90
2022-09-10T08:25:38.015Z,99.90
2022-09-10T08:28:04.589Z,99.90
2022-09-10T08:30:32.134Z,99.90
2022-09-10T08:32:58.760Z,99.90
2022-09-10T08:35:25.450Z,99.90
2022-09-10T08:37:52.046Z,99.90
2022-09-10T08:40:18.615Z,99.90
2022-09-10T08:42:50.109Z,99.90
2022-09-10T08:45:21.986Z,99.90
2022-09-10T08:47:49.253Z,99.90
2022-09-10T08:50:27.429Z,99.90
2022-09-10T08:52:56.852Z,99.90
2022-09-10T08:55:25.657Z,99.90
2022-09-10T08:57:52.864Z,99.90
2022-09-10T09:00:24.459Z,99.90
2022-09-10T09:02:56.369Z,99.80
2022-09-10T09:05:24.063Z,99.90
2022-09-10T09:07:51.058Z,99.90
2022-09-10T09:10:31.401Z,99.90
2022-09-10T09:13:00.872Z,99.90
2022-09-10T09:15:33.050Z,99.90
2022-09-10T09:18:03.985Z,99.90
2022-09-10T09:20:48.779Z,99.90
2022-09-10T09:23:15.374Z,95.30
2022-09-10T09:25:49.651Z,92.60
2022-09-10T09:28:25.977Z,90.80
2022-09-10T09:30:54.007Z,92.60
2022-09-10T09:33:23.068Z,93.70
2022-09-10T09:35:49.687Z,96.60
2022-09-10T09:38:20.721Z,97.70
2022-09-10T09:40:48.859Z,97.10
2022-09-10T09:43:33.912Z,95.30
2022-09-10T09:46:00.934Z,93.40
2022-09-10T09:48:33.014Z,91.80
2022-09-10T09:51:00.419Z,89.70
2022-09-10T09:53:27.878Z,89.00
2022-09-10T09:55:58.570Z,91.50
2022-09-10T09:58:26.276Z,92.10
2022-09-10T10:00:55.610Z,92.20
2022-09-10T10:03:24.305Z,93.20
2022-09-10T10:05:51.131Z,93.70
2022-09-10T10:08:28.253Z,93.70
2022-09-10T10:10:54.903Z,92.90
2022-09-10T10:13:21.821Z,94.60
2022-09-10T10:15:48.918Z,95.00
2022-09-10T10:18:28.899Z,95.10
2022-09-10T10:21:15.306Z,94.80
2022-09-10T10:23:42.089Z,95.30
2022-09-10T10:26:20.872Z,95.20
2022-09-10T10:28:50.181Z,94.80
2022-09-10T10:31:17.394Z,95.50
2022-09-10T10:34:01.541Z,95.40
2022-09-10T10:36:39.116Z,93.70
2022-09-10T10:39:09.475Z,94.20
2022-09-10T10:41:36.019Z,94.10
2022-09-10T10:44:03.091Z,94.50
2022-09-10T10:46:34.426Z,95.30
2022-09-10T10:49:05.263Z,94.30
2022-09-10T10:51:32.049Z,94.00
2022-09-10T10:53:58.626Z,95.40
2022-09-10T10:56:26.050Z,95.90
2022-09-10T10:58:54.412Z,95.50
2022-09-10T11:01:23.308Z,95.30
2022-09-10T11:03:52.817Z,95.60
2022-09-10T11:06:21.449Z,94.50
2022-09-10T11:08:50.782Z,95.00
2022-09-10T11:11:19.909Z,94.90
2022-09-10T11:13:46.466Z,95.50
2022-09-10T11:16:21.764Z,96.40
2022-09-10T11:18:51.925Z,95.60
2022-09-10T11:21:18.496Z,95.50
2022-09-10T11:24:05.424Z,94.70
2022-09-10T11:26:51.038Z,95.60
2022-09-10T11:29:31.158Z,97.60
2022-09-10T11:31:59.166Z,95.10
2022-09-10T11:34:25.793Z,94.60
2022-09-10T11:36:55.982Z,95.00
2022-09-10T11:39:25.590Z,95.10
2022-09-10T11:41:54.648Z,95.50
2022-09-10T11:44:27.465Z,95.70
2022-09-10T11:47:03.124Z,95.30
2022-09-10T11:49:42.438Z,94.90
2022-09-10T11:52:11.340Z,94.70
2022-09-10T11:54:38.943Z,94.20
2022-09-10T11:57:08.377Z,93.60
2022-09-10T11:59:54.022Z,93.90
2022-09-10T12:02:49.809Z,92.50
2022-09-10T12:05:23.622Z,92.90
2022-09-10T12:07:56.894Z,92.60
2022-09-10T12:10:28.928Z,92.50
2022-09-10T12:12:55.573Z,92.10
2022-09-10T12:15:23.740Z,93.00
2022-09-10T12:18:04.472Z,92.70
2022-09-10T12:20:37.671Z,92.30
2022-09-10T12:23:04.825Z,92.10
2022-09-10T12:25:34.667Z,92.50
2022-09-10T12:28:02.968Z,93.50
2022-09-10T12:30:30.804Z,93.60
2022-09-10T12:33:00.367Z,91.90
2022-09-10T12:35:30.373Z,93.10
2022-09-10T12:38:15.643Z,91.40
2022-09-10T12:40:42.190Z,91.70
2022-09-10T12:43:31.807Z,90.90
2022-09-10T12:46:01.204Z,92.90
2022-09-10T12:48:29.856Z,92.70
2022-09-10T12:51:00.403Z,90.60
2022-09-10T12:53:45.694Z,91.50
2022-09-10T12:56:30.716Z,91.60
2022-09-10T12:59:15.951Z,91.20
2022-09-10T13:01:47.718Z,90.70
2022-09-10T13:04:29.565Z,90.20
2022-09-10T13:06:59.278Z,90.50
2022-09-10T13:09:27.700Z,89.40
2022-09-10T13:11:56.823Z,88.90
2022-09-10T13:14:25.832Z,90.50
2022-09-10T13:16:52.671Z,90.20
2022-09-10T13:19:20.888Z,90.90
2022-09-10T13:21:48.115Z,91.20
2022-09-10T13:24:33.836Z,91.40
2022-09-10T13:27:05.087Z,91.10
2022-09-10T13:29:38.320Z,91.70
2022-09-10T13:32:14.017Z,91.00
2022-09-10T13:34:52.923Z,91.50
2022-09-10T13:37:22.265Z,90.70
2022-09-10T13:39:53.740Z,90.60
2022-09-10T13:42:27.578Z,90.80
2022-09-10T13:45:19.041Z,91.40
2022-09-10T13:47:47.399Z,91.10
2022-09-10T13:50:19.101Z,91.60
2022-09-10T13:52:47.179Z,92.20
2022-09-10T13:55:17.914Z,92.60
2022-09-10T13:57:47.535Z,92.60
2022-09-10T14:00:16.917Z,92.70
2022-09-10T14:02:44.579Z,92.90
2022-09-10T14:05:29.879Z,93.00
2022-09-10T14:07:58.365Z,93.90
2022-09-10T14:10:25.267Z,94.30
2022-09-10T14:12:52.848Z,94.10
2022-09-10T14:15:21.964Z,94.80
2022-09-10T14:17:50.993Z,94.70
2022-09-10T14:20:20.439Z,94.50
2022-09-10T14:22:47.154Z,94.60
2022-09-10T14:25:31.232Z,95.10
2022-09-10T14:28:16.521Z,94.10
2022-09-10T14:30:44.309Z,94.60
2022-09-10T14:33:20.035Z,94.60
2022-09-10T14:35:49.273Z,94.40
2022-09-10T14:38:27.055Z,95.10
2022-09-10T14:40:58.302Z,94.70
2022-09-10T14:43:27.949Z,94.80
2022-09-10T14:45:54.605Z,95.00
2022-09-10T14:48:50.705Z,94.90
2022-09-10T14:51:25.062Z,95.20
2022-09-10T14:53:52.754Z,94.80
2022-09-10T14:56:22.418Z,94.40
2022-09-10T14:59:07.519Z,94.80
2022-09-10T15:01:35.372Z,95.30
2022-09-10T15:04:02.143Z,95.80
2022-09-10T15:06:28.793Z,95.60
2022-09-10T15:08:58.321Z,96.00
2022-09-10T15:11:27.737Z,96.30
2022-09-10T15:13:55.962Z,96.30
2022-09-10T15:16:25.416Z,96.80
2022-09-10T15:18:52.090Z,97.80
2022-09-10T15:21:18.979Z,97.70
2022-09-10T15:23:48.159Z,97.30
2022-09-10T15:26:16.251Z,97.30
2022-09-10T15:28:42.901Z,97.80
2022-09-10T15:31:10.850Z,97.20
2022-09-10T15:33:37.675Z,97.60
2022-09-10T15:36:04.430Z,97.80
2022-09-10T15:38:31.432Z,98.00
2022-09-10T15:41:07.019Z,98.70
2022-09-10T15:43:36.318Z,99.30
2022-09-10T15:46:03.121Z,98.90
2022-09-10T15:48:30.646Z,98.90
2022-09-10T15:51:00.335Z,98.80
2022-09-10T15:53:28.199Z,99.00
2022-09-10T15:55:54.779Z,99.10
2022-09-10T15:58:21.345Z,98.60
2022-09-10T16:00:47.919Z,99.00
2022-09-10T16:03:14.538Z,99.10
2022-09-10T16:05:41.565Z,99.50
2022-09-10T16:08:08.172Z,98.70
2022-09-10T16:10:38.135Z,99.30
2022-09-10T16:13:04.745Z,97.80
2022-09-10T16:15:31.638Z,98.80
2022-09-10T16:17:59.731Z,98.30
2022-09-10T16:20:26.558Z,98.60
2022-09-10T16:22:53.761Z,97.60
2022-09-10T16:25:20.367Z,99.90
2022-09-10T16:27:47.186Z,99.90
2022-09-10T16:30:13.889Z,99.90
2022-09-10T16:32:40.531Z,99.90
2022-09-10T16:35:08.549Z,99.90
2022-09-10T16:37:35.104Z,99.90
2022-09-10T16:40:01.975Z,99.90
2022-09-10T16:42:29.161Z,99.90
2022-09-10T16:44:59.411Z,99.90
2022-09-10T16:47:26.145Z,99.90
2022-09-10T16:49:52.763Z,99.90
2022-09-10T16:52:19.371Z,99.90
2022-09-10T16:54:46.236Z,99.90
2022-09-10T16:57:12.841Z,99.90
2022-09-10T16:59:39.456Z,99.90
2022-09-10T17:02:07.457Z,99.90
2022-09-10T17:04:34.929Z,99.90
2022-09-10T17:07:01.553Z,99.90
2022-09-10T17:09:28.146Z,99.90
2022-09-10T17:11:57.830Z,99.90
2022-09-10T17:14:24.587Z,99.90
2022-09-10T17:16:52.113Z,99.90
2022-09-10T17:19:20.258Z,99.90
2022-09-10T17:21:50.863Z,99.90
2022-09-10T17:24:18.125Z,99.90
2022-09-10T17:26:45.940Z,99.90
2022-09-10T17:29:14.639Z,99.90
2022-09-10T17:31:41.557Z,99.90
2022-09-10T17:34:09.730Z,99.90
2022-09-10T17:36:36.886Z,99.90
2022-09-10T17:39:03.655Z,99.90
2022-09-10T17:41:30.902Z,99.90
2022-09-10T17:44:01.316Z,99.90
2022-09-10T17:46:28.130Z,99.90
2022-09-10T17:48:54.833Z,99.90
2022-09-10T17:51:23.106Z,99.90
2022-09-10T17:53:50.430Z,99.90
2022-09-10T17:56:18.865Z,99.90
2022-09-10T17:58:47.148Z,99.90
2022-09-10T18:01:27.334Z,99.90
2022-09-10T18:03:54.402Z,99.90
2022-09-10T18:06:25.160Z,99.90
2022-09-10T18:08:51.861Z,99.90
2022-09-10T18:11:20.221Z,99.90
2022-09-10T18:13:48.992Z,99.90
2022-09-10T18:16:16.950Z,99.90
2022-09-10T18:18:45.506Z,99.90
2022-09-10T18:21:16.937Z,99.90
2022-09-10T18:23:44.256Z,99.90
2022-09-10T18:26:14.714Z,99.90
2022-09-10T18:28:42.006Z,99.90
2022-09-10T18:31:08.902Z,99.90
2022-09-10T18:33:39.610Z,99.90
2022-09-10T18:36:10.382Z,99.90
2022-09-10T18:38:38.154Z,99.90
2022-09-10T18:41:05.364Z,99.90
2022-09-10T18:43:33.790Z,99.90
2022-09-10T18:46:04.209Z,99.90
2022-09-10T18:48:34.539Z,99.90
2022-09-10T18:51:05.386Z,99.90
2022-09-10T18:53:32.158Z,99.90
2022-09-10T18:56:04.587Z,99.90
2022-09-10T18:58:31.167Z,99.90
2022-09-10T19:01:03.274Z,99.90
2022-09-10T19:03:33.547Z,99.90
2022-09-10T19:06:02.283Z,99.90
2022-09-10T19:08:28.888Z,99.90
2022-09-10T19:10:59.140Z,99.90
2022-09-10T19:13:25.763Z,99.90
2022-09-10T19:15:56.011Z,99.90
2022-09-10T19:18:22.667Z,99.90
2022-09-10T19:20:49.516Z,99.90
2022-09-10T19:23:19.640Z,99.90
2022-09-10T19:25:50.738Z,99.90
2022-09-10T19:28:17.379Z,99.90
2022-09-10T19:30:44.124Z,99.90
2022-09-10T19:33:10.858Z,99.90
2022-09-10T19:35:37.470Z,99.90
2022-09-10T19:38:21.073Z,99.90
2022-09-10T19:40:50.740Z,99.90
2022-09-10T19:43:17.500Z,99.90
2022-09-10T19:45:44.080Z,99.90
2022-09-10T19:48:10.695Z,99.90
2022-09-10T19:50:39.951Z,99.90
2022-09-10T19:53:06.663Z,99.90
2022-09-10T19:55:34.434Z,99.90
2022-09-10T19:58:01.459Z,99.90
2022-09-10T20:00:45.789Z,99.90
2022-09-10T20:03:13.436Z,99.90
2022-09-10T20:05:42.511Z,99.90
2022-09-10T20:08:09.782Z,99.90
2022-09-10T20:10:37.678Z,99.90
2022-09-10T20:13:04.791Z,99.90
2022-09-10T20:15:32.174Z,99.90
2022-09-10T20:17:58.945Z,99.90
2022-09-10T20:20:25.659Z,99.90
2022-09-10T20:22:52.251Z,99.90
2022-09-10T20:25:18.907Z,99.90
2022-09-10T20:27:45.482Z,99.90
2022-09-10T20:30:12.192Z,99.90
2022-09-10T20:32:38.886Z,99.90
2022-09-10T20:35:05.730Z,99.90
2022-09-10T20:37:32.791Z,99.90
2022-09-10T20:39:59.998Z,99.90
2022-09-10T20:42:27.855Z,99.90
2022-09-10T20:44:55.474Z,99.90
2022-09-10T20:47:24.192Z,99.90
2022-09-10T20:49:50.902Z,99.90
2022-09-10T20:52:18.223Z,99.90
2022-09-10T20:54:46.163Z,99.90
2022-09-10T20:57:18.769Z,99.90
2022-09-10T20:59:57.090Z,99.90
2022-09-10T21:02:23.814Z,99.90
2022-09-10T21:04:50.692Z,99.90
2022-09-10T21:07:17.276Z,99.90
2022-09-10T21:09:43.919Z,99.90
2022-09-10T21:12:11.351Z,99.90
2022-09-10T21:14:37.952Z,99.90
2022-09-10T21:17:04.592Z,99.90
2022-09-10T21:19:31.131Z,99.90
2022-09-10T21:21:57.751Z,99.90
2022-09-10T21:24:24.875Z,99.90
2022-09-10T21:26:53.241Z,99.90
2022-09-10T21:29:20.740Z,99.90
2022-09-10T21:31:47.773Z,99.90
2022-09-10T21:34:14.841Z,99.90
2022-09-10T21:36:43.493Z,99.90
2022-09-10T21:39:14.386Z,99.90
2022-09-10T21:41:45.501Z,99.90
2022-09-10T21:44:16.292Z,99.90
2022-09-10T21:46:43.884Z,99.90
2022-09-10T21:49:10.794Z,99.90
2022-09-10T21:51:37.645Z,99.90
2022-09-10T21:54:04.810Z,99.90
2022-09-10T21:56:31.673Z,99.90
2022-09-10T21:58:59.265Z,99.90
2022-09-10T22:01:27.779Z,99.90
2022-09-10T22:03:59.585Z,99.90
2022-09-10T22:06:27.853Z,99.90
2022-09-10T22:09:01.558Z,99.90
2022-09-10T22:11:30.311Z,99.90
2022-09-10T22:13:59.043Z,99.90
2022-09-10T22:16:25.696Z,99.90
2022-09-10T22:18:53.810Z,99.90
2022-09-10T22:21:20.414Z,99.90
2022-09-10T22:23:47.385Z,99.90
2022-09-10T22:26:15.047Z,99.90
2022-09-10T22:28:42.152Z,99.90
2022-09-10T22:31:08.812Z,99.90
2022-09-10T22:33:36.858Z,99.90
2022-09-10T22:36:19.054Z,99.90
2022-09-10T22:38:49.791Z,99.90
2022-09-10T22:41:16.602Z,99.90
2022-09-10T22:43:43.222Z,99.90
2022-09-10T22:46:10.397Z,99.90
2022-09-10T22:48:37.834Z,99.90
2022-09-10T22:51:05.239Z,99.90
2022-09-10T22:53:32.081Z,99.90
2022-09-10T22:55:58.827Z,99.90
2022-09-10T22:58:26.336Z,99.90
2022-09-10T23:00:53.469Z,99.90
2022-09-10T23:03:20.658Z,99.90
2022-09-10T23:05:47.808Z,99.90
2022-09-10T23:08:14.434Z,99.90
2022-09-10T23:10:41.026Z,99.90
2022-09-10T23:13:07.596Z,99.90
2022-09-10T23:15:34.675Z,99.90
2022-09-10T23:18:01.369Z,99.90
2022-09-10T23:20:28.058Z,99.90
2022-09-10T23:22:54.746Z,99.90
2022-09-10T23:25:21.515Z,99.90
2022-09-10T23:27:48.831Z,99.90
2022-09-10T23:30:16.056Z,99.90
2022-09-10T23:32:43.670Z,99.90
2022-09-10T23:35:10.332Z,99.90
2022-09-10T23:37:37.102Z,99.90
2022-09-10T23:40:04.106Z,99.90
2022-09-10T23:42:31.202Z,99.90
2022-09-10T23:44:57.785Z,99.90
2022-09-10T23:47:24.474Z,99.90
2022-09-10T23:49:51.044Z,99.90
2022-09-10T23:52:17.612Z,99.90
2022-09-10T23:54:44.605Z,99.90
2022-09-10T23:57:11.275Z,99.90
2022-09-10T23:59:37.861Z,99.90
